Time;durP1;ratioP1;P1;durP2;ratioP2;P2;SDS_P1;SDS_P2;PMS_P1;PMS_P2;Temp;Humidity;BMP_temperature;BMP_pressure;BME280_temperature;BME280_humidity;BME280_pressure;Samples;Min_cycle;Max_cycle;Signal;HPM_P1;HPM_P2
2021/12/17 00:05:01;;;;;;;1.60;1.20;;;9.20;98.20;;;;;;5062558;28;20453;-77
2021/12/17 00:07:30;;;;;;;1.60;1.20;;;9.20;98.20;;;;;;5067130;28;20469;-77
2021/12/17 00:10:00;;;;;;;1.60;1.13;;;9.20;98.20;;;;;;5065234;28;20470;-77
2021/12/17 00:12:28;;;;;;;1.67;1.30;;;9.20;98.20;;;;;;5061366;28;20480;-77
2021/12/17 00:14:59;;;;;;;1.60;1.20;;;9.20;98.20;;;;;;5069715;28;20838;-76
2021/12/17 00:17:34;;;;;;;1.60;1.20;;;9.20;98.20;;;;;;5064590;28;20572;-76
2021/12/17 00:20:34;;;;;;;1.60;1.20;;;9.20;98.20;;;;;;5070803;28;20467;-77
2021/12/17 00:51:13;;;;;;;1.60;1.20;;;9.20;98.20;;;;;;5069509;28;20960;-77
2021/12/17 00:53:42;;;;;;;1.60;1.20;;;9.20;98.20;;;;;;5069981;28;20488;-76
2021/12/17 00:56:09;;;;;;;1.60;1.10;;;9.20;98.20;;;;;;5069025;28;20453;-76
2021/12/17 00:58:35;;;;;;;1.60;1.20;;;9.20;98.20;;;;;;5069687;28;20458;-77
2021/12/17 01:01:03;;;;;;;1.60;1.20;;;9.20;98.20;;;;;;5069039;28;21114;-76
2021/12/17 01:03:32;;;;;;;1.60;1.20;;;9.10;98.20;;;;;;5069438;28;20481;-77
2021/12/17 01:05:58;;;;;;;1.60;1.20;;;9.10;98.20;;;;;;5069413;28;20531;-76
2021/12/17 01:08:25;;;;;;;1.60;1.20;;;9.10;98.20;;;;;;5069374;28;20957;-76
2021/12/17 01:10:56;;;;;;;1.60;1.10;;;9.10;98.20;;;;;;5069757;28;20468;-76
2021/12/17 01:13:26;;;;;;;1.60;1.20;;;9.10;98.20;;;;;;5068117;28;20469;-77
2021/12/17 01:15:54;;;;;;;1.60;1.27;;;9.10;98.20;;;;;;5068702;28;20961;-76
2021/12/17 01:18:33;;;;;;;1.60;1.20;;;9.10;98.20;;;;;;5069517;28;20461;-76
2021/12/17 01:21:24;;;;;;;1.60;1.20;;;9.10;98.20;;;;;;5069397;28;20476;-77
2021/12/17 01:24:13;;;;;;;1.80;1.60;;;9.10;98.20;;;;;;5068988;28;20857;-76
2021/12/17 01:43:29;;;;;;;1.60;1.20;;;9.10;98.20;;;;;;5069074;28;20535;-76
2021/12/17 01:45:57;;;;;;;1.60;1.20;;;9.10;98.20;;;;;;5068510;28;21009;-77
2021/12/17 01:48:32;;;;;;;1.60;1.20;;;9.10;98.20;;;;;;5068429;28;20472;-76
2021/12/17 01:56:52;;;;;;;1.60;1.20;;;9.20;98.20;;;;;;5067542;28;20491;-77
2021/12/17 01:59:23;;;;;;;1.60;1.10;;;9.10;98.20;;;;;;5068866;28;20462;-77
2021/12/17 02:01:54;;;;;;;1.60;1.20;;;9.10;98.20;;;;;;5067885;28;21200;-77
2021/12/17 02:04:20;;;;;;;1.63;1.20;;;9.10;98.20;;;;;;5068899;28;20481;-76
2021/12/17 02:06:47;;;;;;;1.60;1.20;;;9.10;98.20;;;;;;5067967;28;20464;-77
2021/12/17 02:29:03;;;;;;;1.60;1.20;;;9.10;98.20;;;;;;5068123;28;20639;-77
2021/12/17 02:31:32;;;;;;;1.60;1.10;;;9.10;98.20;;;;;;5061780;28;20461;-76
2021/12/17 02:34:03;;;;;;;1.60;1.20;;;9.10;98.20;;;;;;5065389;28;20491;-77
2021/12/17 02:36:34;;;;;;;1.60;1.17;;;9.10;98.20;;;;;;5067596;28;20457;-76
2021/12/17 02:39:28;;;;;;;1.60;1.20;;;9.10;98.20;;;;;;5068205;28;20472;-76
2021/12/17 02:47:25;;;;;;;1.60;1.20;;;9.10;98.20;;;;;;5066730;28;20526;-76
2021/12/17 02:49:52;;;;;;;1.60;1.20;;;9.10;98.20;;;;;;5068102;28;20464;-75
2021/12/17 02:52:26;;;;;;;1.60;1.20;;;9.10;98.20;;;;;;5066970;28;20542;-76
2021/12/17 02:54:54;;;;;;;1.63;1.20;;;9.10;98.20;;;;;;5067400;28;20465;-76
2021/12/17 02:57:21;;;;;;;1.60;1.20;;;9.10;98.20;;;;;;5066776;28;20608;-77
2021/12/17 02:59:48;;;;;;;1.60;1.20;;;9.10;98.20;;;;;;5068095;28;20762;-76
2021/12/17 03:02:15;;;;;;;1.60;1.20;;;9.10;98.20;;;;;;5066639;28;21043;-77
2021/12/17 03:04:43;;;;;;;1.60;1.20;;;9.10;98.20;;;;;;5067929;28;20823;-77
2021/12/17 03:07:12;;;;;;;1.60;1.20;;;9.10;98.20;;;;;;5067345;28;20472;-76
2021/12/17 03:10:00;;;;;;;1.60;1.20;;;9.10;98.20;;;;;;5067502;28;20472;-77
2021/12/17 03:12:32;;;;;;;1.60;1.20;;;9.10;98.20;;;;;;5067072;28;20477;-77
2021/12/17 03:15:06;;;;;;;1.60;1.20;;;9.10;98.20;;;;;;5066927;28;20466;-77
2021/12/17 03:17:56;;;;;;;1.60;1.20;;;9.10;98.20;;;;;;5068218;28;20465;-77
2021/12/17 03:25:52;;;;;;;1.60;1.20;;;9.10;98.20;;;;;;5067225;28;20965;-77
2021/12/17 03:28:20;;;;;;;1.60;1.20;;;9.10;98.20;;;;;;5066957;28;20461;-77
2021/12/17 03:30:48;;;;;;;1.60;1.20;;;9.10;98.20;;;;;;5068071;28;20469;-76
2021/12/17 03:33:15;;;;;;;1.60;1.20;;;9.10;98.20;;;;;;5066865;28;20528;-76
2021/12/17 03:35:43;;;;;;;1.60;1.10;;;9.10;98.20;;;;;;5067452;28;20466;-76
2021/12/17 03:38:11;;;;;;;1.60;1.20;;;9.10;98.20;;;;;;5065766;28;20464;-76
2021/12/17 03:40:40;;;;;;;2.17;1.97;;;9.10;98.20;;;;;;5071369;28;20457;-76
2021/12/17 03:43:12;;;;;;;1.60;1.10;;;9.10;98.20;;;;;;5071131;28;20580;-77
2021/12/17 03:45:43;;;;;;;1.60;1.20;;;9.10;98.20;;;;;;5070579;28;20743;-77
2021/12/17 03:48:11;;;;;;;1.63;1.20;;;9.10;98.20;;;;;;5070107;28;20461;-76
2021/12/17 03:50:38;;;;;;;1.60;1.20;;;9.10;98.20;;;;;;5070049;28;20583;-78
2021/12/17 03:53:07;;;;;;;1.60;1.10;;;9.10;98.20;;;;;;5069786;28;20487;-76
2021/12/17 03:55:34;;;;;;;1.60;1.13;;;9.10;98.20;;;;;;5070086;28;20461;-77
2021/12/17 03:58:02;;;;;;;1.63;1.20;;;9.10;98.20;;;;;;5069884;28;20461;-77
2021/12/17 04:00:31;;;;;;;1.60;1.10;;;9.10;98.20;;;;;;5070457;28;20546;-76
2021/12/17 04:02:58;;;;;;;1.60;1.20;;;9.10;98.20;;;;;;5070157;28;20496;-75
2021/12/17 04:05:26;;;;;;;2.07;1.80;;;9.10;98.20;;;;;;5070176;28;20511;-76
2021/12/17 04:07:54;;;;;;;4.50;4.20;;;9.10;98.20;;;;;;5069306;28;20493;-76
2021/12/17 04:10:25;;;;;;;1.60;1.20;;;9.10;98.20;;;;;;5070373;28;20933;-77
2021/12/17 04:12:57;;;;;;;1.60;1.20;;;9.10;98.20;;;;;;5070642;28;20481;-76
2021/12/17 04:15:32;;;;;;;1.60;1.20;;;9.10;98.20;;;;;;5068380;28;20805;-77
2021/12/17 04:18:01;;;;;;;1.60;1.20;;;9.00;98.20;;;;;;5070424;28;20579;-78
2021/12/17 04:20:30;;;;;;;1.60;1.20;;;9.00;98.20;;;;;;5065453;28;20473;-77
2021/12/17 04:22:57;;;;;;;1.60;1.13;;;9.10;98.20;;;;;;5072471;28;20497;-76
2021/12/17 04:25:25;;;;;;;1.60;1.13;;;9.00;98.20;;;;;;5072329;28;20461;-77
2021/12/17 04:27:52;;;;;;;1.60;1.20;;;9.00;98.20;;;;;;5072230;28;20461;-76
2021/12/17 04:30:19;;;;;;;1.60;1.20;;;9.00;98.20;;;;;;5072326;28;20518;-78
2021/12/17 04:32:46;;;;;;;1.60;1.20;;;9.00;98.20;;;;;;5071887;28;20525;-75
2021/12/17 04:35:14;;;;;;;1.63;1.30;;;9.00;98.20;;;;;;5068540;28;20465;-76
2021/12/17 04:37:41;;;;;;;1.60;1.20;;;9.00;98.20;;;;;;5090470;22;20493;-77
2021/12/17 04:40:09;;;;;;;1.77;1.40;;;9.00;98.20;;;;;;5069126;28;20466;-77
2021/12/17 04:42:44;;;;;;;1.60;1.20;;;9.00;98.20;;;;;;5069971;28;20472;-75
2021/12/17 04:45:11;;;;;;;1.60;1.20;;;9.00;98.20;;;;;;5063803;28;20453;-75
2021/12/17 04:58:32;;;;;;;1.60;1.30;;;9.00;98.20;;;;;;5071185;28;21280;-74
2021/12/17 05:01:01;;;;;;;1.60;1.20;;;9.00;98.20;;;;;;5068073;28;20586;-74
2021/12/17 05:03:28;;;;;;;1.60;1.20;;;9.00;98.20;;;;;;5068070;28;20539;-76
2021/12/17 05:05:56;;;;;;;1.60;1.20;;;9.00;98.20;;;;;;5067436;28;20461;-74
2021/12/17 05:08:24;;;;;;;1.60;1.20;;;9.00;98.20;;;;;;5067640;28;21214;-74
2021/12/17 05:11:16;;;;;;;1.60;1.20;;;9.00;98.20;;;;;;5062702;28;20606;-74
2021/12/17 05:19:21;;;;;;;1.60;1.20;;;9.00;98.20;;;;;;5066767;28;20985;-74
2021/12/17 05:21:49;;;;;;;1.60;1.20;;;9.00;98.20;;;;;;5067858;28;20461;-75
2021/12/17 05:24:16;;;;;;;1.60;1.20;;;9.00;98.20;;;;;;5067642;28;20495;-74
2021/12/17 05:26:42;;;;;;;1.60;1.20;;;9.00;98.20;;;;;;5067666;28;20476;-74
2021/12/17 05:29:09;;;;;;;1.60;1.10;;;9.00;98.20;;;;;;5066652;28;20484;-77
2021/12/17 05:31:36;;;;;;;1.60;1.20;;;9.00;98.20;;;;;;5066923;28;20457;-77
2021/12/17 05:34:03;;;;;;;1.67;1.30;;;9.00;98.20;;;;;;5067747;28;20830;-78
2021/12/17 05:36:30;;;;;;;1.60;1.20;;;9.00;98.20;;;;;;5068174;28;20469;-77
2021/12/17 05:38:58;;;;;;;1.60;1.20;;;9.00;98.20;;;;;;5068963;28;20498;-77
2021/12/17 05:41:24;;;;;;;1.60;1.20;;;9.00;98.20;;;;;;5067593;28;20976;-77
2021/12/17 05:43:56;;;;;;;1.60;1.20;;;9.00;98.20;;;;;;5067901;28;20493;-81
2021/12/17 05:46:37;;;;;;;1.60;1.20;;;9.00;98.20;;;;;;5067527;28;20552;-76
2021/12/17 05:49:04;;;;;;;1.60;1.20;;;9.00;98.20;;;;;;5056114;28;20896;-77
2021/12/17 05:51:31;;;;;;;1.60;1.10;;;9.00;98.20;;;;;;5059675;28;20841;-77
2021/12/17 05:53:59;;;;;;;1.60;1.13;;;9.00;98.20;;;;;;5070434;28;20478;-78
2021/12/17 05:56:27;;;;;;;1.60;1.20;;;9.00;98.20;;;;;;5066889;28;20465;-78
2021/12/17 05:58:55;;;;;;;1.60;1.20;;;9.00;98.20;;;;;;5067348;28;20968;-78
2021/12/17 06:01:22;;;;;;;1.67;1.30;;;9.00;98.20;;;;;;5065904;28;20552;-78
2021/12/17 06:03:49;;;;;;;1.60;1.30;;;9.00;98.20;;;;;;5067859;28;20525;-77
2021/12/17 06:06:26;;;;;;;1.60;1.20;;;9.00;98.20;;;;;;5067162;28;20473;-77
2021/12/17 06:08:53;;;;;;;1.63;1.20;;;9.00;98.20;;;;;;5066352;28;20485;-77
2021/12/17 06:11:21;;;;;;;1.63;1.30;;;9.00;98.20;;;;;;5067194;28;20469;-77
2021/12/17 06:13:48;;;;;;;1.60;1.20;;;9.00;98.20;;;;;;5066323;28;20483;-77
2021/12/17 06:16:15;;;;;;;2.00;1.80;;;9.00;98.20;;;;;;5067788;28;20457;-77
2021/12/17 06:18:42;;;;;;;1.60;1.20;;;9.00;98.20;;;;;;5067668;28;20488;-77
2021/12/17 06:21:08;;;;;;;1.60;1.27;;;9.00;98.20;;;;;;5066256;28;20453;-77
2021/12/17 06:23:35;;;;;;;1.60;1.20;;;9.00;98.20;;;;;;5066621;28;20477;-76
2021/12/17 06:26:02;;;;;;;1.60;1.27;;;9.00;98.20;;;;;;5066524;28;20536;-77
2021/12/17 06:28:30;;;;;;;1.60;1.20;;;9.00;98.20;;;;;;5068288;28;20485;-77
2021/12/17 06:30:57;;;;;;;1.60;1.30;;;9.00;98.20;;;;;;5067119;28;20465;-77
2021/12/17 06:33:23;;;;;;;1.60;1.20;;;9.00;98.20;;;;;;5053900;28;20572;-74
2021/12/17 06:35:50;;;;;;;1.60;1.20;;;9.00;98.20;;;;;;5059213;28;20468;-75
2021/12/17 06:38:17;;;;;;;1.60;1.20;;;9.00;98.20;;;;;;5066655;28;20496;-74
2021/12/17 06:40:44;;;;;;;1.60;1.20;;;9.00;98.20;;;;;;5066841;28;20468;-75
2021/12/17 06:43:10;;;;;;;1.60;1.10;;;9.00;98.20;;;;;;5066702;28;20496;-75
2021/12/17 06:45:50;;;;;;;1.70;1.40;;;9.00;98.20;;;;;;5066546;28;20468;-75
2021/12/17 06:48:20;;;;;;;1.63;1.30;;;9.00;98.20;;;;;;5067635;28;20472;-78
2021/12/17 06:59:21;;;;;;;1.60;1.20;;;9.00;98.20;;;;;;5029276;28;20458;-76
2021/12/17 07:10:36;;;;;;;1.60;1.20;;;9.00;98.20;;;;;;5064870;28;20498;-76
2021/12/17 07:21:37;;;;;;;3.80;1.87;;;9.00;98.20;;;;;;5069404;28;20450;-76
2021/12/17 07:40:44;;;;;;;1.60;1.13;;;9.10;98.20;;;;;;5067745;28;20440;-76
2021/12/17 07:43:23;;;;;;;1.63;1.30;;;9.00;98.20;;;;;;5069506;28;20495;-76
2021/12/17 07:45:50;;;;;;;1.67;1.30;;;9.10;98.20;;;;;;5069393;28;20465;-74
2021/12/17 07:48:17;;;;;;;1.60;1.20;;;9.00;98.20;;;;;;5069981;28;20491;-74
2021/12/17 07:50:46;;;;;;;1.63;1.23;;;9.00;98.20;;;;;;5069490;28;20471;-76
2021/12/17 07:53:13;;;;;;;1.60;1.20;;;9.10;98.20;;;;;;5069166;28;20457;-74
2021/12/17 07:55:40;;;;;;;1.63;1.20;;;9.00;98.20;;;;;;5067760;28;20469;-74
2021/12/17 07:58:07;;;;;;;1.60;1.20;;;9.10;98.20;;;;;;5067246;28;20481;-74
2021/12/17 08:00:34;;;;;;;1.60;1.10;;;9.10;98.20;;;;;;5069583;28;20465;-73
2021/12/17 08:03:01;;;;;;;1.67;1.30;;;9.10;98.20;;;;;;5069162;28;20501;-74
2021/12/17 08:05:27;;;;;;;1.63;1.20;;;9.10;98.20;;;;;;5069482;28;20488;-74
2021/12/17 08:07:56;;;;;;;1.60;1.20;;;9.10;98.20;;;;;;5068847;28;20487;-75
2021/12/17 08:10:23;;;;;;;1.70;1.33;;;9.10;98.20;;;;;;5067842;28;20560;-74
2021/12/17 08:12:54;;;;;;;1.60;1.30;;;9.10;98.20;;;;;;5068700;28;20564;-73
2021/12/17 08:15:23;;;;;;;1.60;1.10;;;9.10;98.20;;;;;;5069188;28;20465;-75
2021/12/17 08:18:15;;;;;;;1.70;1.10;;;9.10;98.20;;;;;;5069652;28;20489;-74
2021/12/17 08:26:14;;;;;;;1.60;1.10;;;9.10;98.20;;;;;;5045122;28;20464;-74
2021/12/17 08:31:22;;;;;;;1.60;1.20;;;9.10;98.20;;;;;;5064809;28;20464;-76
2021/12/17 08:33:49;;;;;;;1.60;1.20;;;9.10;98.20;;;;;;5064960;28;20457;-77
2021/12/17 08:36:17;;;;;;;1.63;1.30;;;9.10;98.20;;;;;;5064354;28;20844;-78
2021/12/17 08:38:46;;;;;;;1.60;1.20;;;9.20;98.20;;;;;;5064693;28;20484;-77
2021/12/17 08:41:14;;;;;;;1.60;1.20;;;9.20;98.20;;;;;;5068015;28;20453;-79
2021/12/17 08:43:42;;;;;;;1.60;1.10;;;9.20;98.20;;;;;;5069523;28;20572;-78
2021/12/17 08:46:10;;;;;;;1.67;1.30;;;9.20;98.20;;;;;;5060728;28;20558;-79
2021/12/17 08:48:37;;;;;;;1.60;1.20;;;9.20;98.20;;;;;;5066406;28;20591;-77
2021/12/17 08:51:06;;;;;;;1.63;1.20;;;9.20;98.20;;;;;;5068542;28;20511;-79
2021/12/17 08:53:33;;;;;;;1.67;1.30;;;9.20;98.20;;;;;;5067498;28;20973;-78
2021/12/17 08:56:01;;;;;;;1.60;1.13;;;9.20;98.20;;;;;;5067518;28;20472;-78
2021/12/17 08:58:28;;;;;;;1.60;1.13;;;9.20;98.20;;;;;;5066789;28;20952;-76
2021/12/17 09:00:55;;;;;;;1.60;1.20;;;9.20;98.20;;;;;;5068134;28;20469;-78
2021/12/17 09:03:22;;;;;;;1.60;1.20;;;9.20;98.20;;;;;;5067865;28;20508;-75
2021/12/17 09:05:50;;;;;;;1.60;1.20;;;9.20;98.20;;;;;;5067458;28;20457;-75
2021/12/17 09:08:18;;;;;;;1.60;1.20;;;9.20;98.20;;;;;;5068159;28;20491;-73
2021/12/17 09:10:45;;;;;;;1.60;1.20;;;9.20;98.20;;;;;;5066707;28;20454;-74
2021/12/17 09:13:13;;;;;;;1.60;1.20;;;9.20;98.20;;;;;;5066628;28;20488;-76
2021/12/17 09:15:40;;;;;;;1.60;1.10;;;9.20;98.20;;;;;;5068397;28;20493;-76
2021/12/17 09:18:08;;;;;;;1.70;1.50;;;9.20;98.20;;;;;;5063319;28;20918;-75
2021/12/17 09:20:35;;;;;;;1.60;1.20;;;9.20;98.20;;;;;;5058468;28;20457;-74
2021/12/17 09:23:02;;;;;;;1.60;1.30;;;9.20;98.20;;;;;;5061845;28;20463;-75
2021/12/17 09:25:29;;;;;;;1.60;1.20;;;9.20;98.20;;;;;;5056677;28;21018;-73
2021/12/17 09:27:56;;;;;;;1.60;1.10;;;9.20;98.20;;;;;;5054309;28;20896;-75
2021/12/17 09:30:24;;;;;;;1.70;1.30;;;9.20;98.20;;;;;;5054767;28;21019;-73
2021/12/17 09:32:51;;;;;;;1.60;1.20;;;9.30;98.20;;;;;;5054870;28;20562;-74
2021/12/17 09:35:21;;;;;;;1.60;1.20;;;9.30;98.20;;;;;;5053793;28;20493;-73
2021/12/17 09:37:48;;;;;;;1.60;1.20;;;9.30;98.20;;;;;;5053151;28;20583;-74
2021/12/17 09:40:15;;;;;;;1.70;1.33;;;9.30;98.20;;;;;;5057260;28;20557;-73
2021/12/17 09:42:44;;;;;;;1.70;1.37;;;9.40;98.20;;;;;;5054487;28;20854;-73
2021/12/17 09:45:13;;;;;;;1.60;1.20;;;9.40;98.20;;;;;;5056662;28;20542;-75
2021/12/17 09:47:41;;;;;;;1.60;1.20;;;9.40;98.20;;;;;;5055834;28;20486;-73
2021/12/17 09:50:10;;;;;;;1.60;1.10;;;9.40;98.20;;;;;;5059120;28;20534;-74
2021/12/17 09:52:37;;;;;;;1.60;1.20;;;9.40;98.20;;;;;;5061673;28;20469;-75
2021/12/17 09:55:07;;;;;;;1.60;1.20;;;9.40;98.20;;;;;;5054711;28;20469;-74
2021/12/17 09:57:36;;;;;;;1.60;1.17;;;9.40;98.20;;;;;;5057654;28;20485;-74
2021/12/17 10:00:06;;;;;;;1.60;1.20;;;9.40;98.20;;;;;;5059676;28;20949;-73
2021/12/17 10:02:32;;;;;;;1.60;1.10;;;9.40;98.20;;;;;;5060865;28;20481;-74
2021/12/17 10:05:01;;;;;;;1.60;1.20;;;9.40;98.20;;;;;;5061596;28;20968;-74
2021/12/17 10:07:30;;;;;;;1.60;1.20;;;9.50;98.20;;;;;;5064423;28;20496;-76
2021/12/17 10:09:59;;;;;;;1.60;1.27;;;9.50;98.20;;;;;;5060497;28;20474;-77
2021/12/17 10:12:28;;;;;;;1.60;1.10;;;9.50;98.20;;;;;;5051182;28;20516;-76
2021/12/17 10:15:05;;;;;;;1.60;1.20;;;9.50;98.20;;;;;;5062529;28;21097;-76
2021/12/17 10:17:33;;;;;;;1.63;1.20;;;9.50;98.20;;;;;;5062672;28;20535;-75
2021/12/17 10:20:03;;;;;;;1.60;1.10;;;9.50;98.20;;;;;;5058619;28;20488;-79
2021/12/17 10:22:31;;;;;;;2.00;1.63;;;9.60;98.20;;;;;;5063456;28;20497;-77
2021/12/17 10:25:03;;;;;;;1.60;1.20;;;9.60;98.20;;;;;;5061921;28;21008;-76
2021/12/17 10:27:33;;;;;;;1.70;1.23;;;9.70;98.20;;;;;;5062640;28;20490;-76
2021/12/17 10:30:08;;;;;;;1.60;1.20;;;9.70;98.20;;;;;;5052660;28;20465;-74
2021/12/17 10:32:35;;;;;;;1.60;1.20;;;9.70;98.20;;;;;;5044834;28;20466;-75
2021/12/17 10:35:07;;;;;;;1.60;1.10;;;9.70;98.20;;;;;;5050131;28;20550;-75
2021/12/17 10:37:41;;;;;;;1.67;1.20;;;9.70;98.20;;;;;;5054571;28;20574;-75
2021/12/17 10:40:26;;;;;;;1.60;1.10;;;9.80;98.20;;;;;;5053506;28;20473;-75
2021/12/17 10:43:01;;;;;;;1.60;1.20;;;9.80;98.20;;;;;;5054759;28;21257;-78
2021/12/17 10:45:31;;;;;;;1.60;1.10;;;9.80;98.20;;;;;;5053548;28;21129;-75
2021/12/17 10:48:24;;;;;;;1.63;1.20;;;9.80;98.20;;;;;;5055546;28;20485;-76
2021/12/17 10:50:55;;;;;;;1.60;1.10;;;9.80;98.20;;;;;;5058868;28;20826;-77
2021/12/17 10:53:26;;;;;;;1.70;1.23;;;9.80;98.20;;;;;;5057794;28;20461;-76
2021/12/17 10:55:55;;;;;;;1.60;1.10;;;9.80;98.20;;;;;;5057529;28;20464;-75
2021/12/17 10:58:23;;;;;;;2.40;2.20;;;9.90;98.20;;;;;;5043608;28;20489;-74
2021/12/17 11:00:56;;;;;;;1.70;1.40;;;9.90;98.20;;;;;;5049078;28;20608;-76
2021/12/17 11:03:24;;;;;;;1.60;1.17;;;9.90;98.20;;;;;;5056793;28;20456;-75
2021/12/17 11:05:52;;;;;;;1.60;1.20;;;9.90;98.20;;;;;;5057234;28;20592;-76
2021/12/17 11:08:28;;;;;;;1.60;1.10;;;9.90;98.20;;;;;;5057605;28;20564;-77
2021/12/17 11:11:00;;;;;;;1.80;1.30;;;9.90;98.20;;;;;;5056320;28;21298;-76
2021/12/17 11:13:28;;;;;;;1.60;1.10;;;9.90;98.20;;;;;;5056674;28;20479;-77
2021/12/17 11:15:55;;;;;;;1.60;1.20;;;9.90;98.20;;;;;;5057188;28;20466;-78
2021/12/17 11:18:26;;;;;;;1.60;1.20;;;9.90;98.20;;;;;;5058167;28;21066;-76
2021/12/17 11:20:56;;;;;;;1.60;1.20;;;10.00;98.20;;;;;;5057078;28;20847;-77
2021/12/17 11:23:24;;;;;;;1.60;1.10;;;10.00;98.20;;;;;;5057615;28;20840;-77
2021/12/17 11:25:54;;;;;;;1.60;1.10;;;10.00;98.20;;;;;;5056842;28;20489;-75
2021/12/17 11:28:22;;;;;;;1.67;1.20;;;10.00;98.20;;;;;;5056730;28;20559;-74
2021/12/17 11:30:51;;;;;;;1.63;1.20;;;10.00;98.20;;;;;;5058022;28;20469;-76
2021/12/17 11:33:18;;;;;;;1.60;1.20;;;10.00;98.20;;;;;;5057544;28;20461;-76
2021/12/17 11:35:47;;;;;;;1.60;1.17;;;10.00;98.20;;;;;;5056406;28;20911;-77
2021/12/17 11:38:25;;;;;;;1.60;1.20;;;10.00;98.20;;;;;;5057294;28;20902;-77
2021/12/17 11:40:57;;;;;;;1.67;1.20;;;10.00;98.20;;;;;;5055278;28;21004;-78
2021/12/17 11:43:48;;;;;;;1.60;1.10;;;10.00;98.20;;;;;;5056139;28;20554;-77
2021/12/17 11:46:17;;;;;;;1.60;1.20;;;10.10;98.20;;;;;;5055885;28;20489;-76
2021/12/17 11:48:51;;;;;;;1.60;1.13;;;10.10;98.20;;;;;;5061546;28;20621;-77
2021/12/17 11:51:23;;;;;;;1.60;1.17;;;10.10;98.20;;;;;;5057827;28;20461;-78
2021/12/17 11:54:08;;;;;;;1.60;1.10;;;10.10;98.20;;;;;;5057854;28;20523;-76
2021/12/17 11:56:43;;;;;;;1.60;1.17;;;10.10;98.20;;;;;;5053729;28;20994;-77
2021/12/17 11:59:32;;;;;;;1.60;1.10;;;10.10;98.20;;;;;;5047042;28;20519;-78
2021/12/17 12:02:05;;;;;;;2.27;2.07;;;10.00;98.20;;;;;;5055879;28;20874;-76
2021/12/17 12:04:51;;;;;;;1.60;1.20;;;10.00;98.20;;;;;;5056625;28;20509;-76
2021/12/17 12:10:26;;;;;;;1.70;1.30;;;10.00;98.20;;;;;;5032694;28;20461;-76
2021/12/17 12:13:00;;;;;;;1.60;1.10;;;10.00;98.20;;;;;;5051202;28;20851;-75
2021/12/17 12:18:46;;;;;;;1.60;1.20;;;10.00;98.20;;;;;;5026044;28;20656;-75
2021/12/17 12:21:17;;;;;;;1.60;1.10;;;10.00;98.20;;;;;;5049106;28;20496;-76
2021/12/17 12:27:06;;;;;;;1.60;1.10;;;10.00;98.20;;;;;;5050405;28;20552;-75
2021/12/17 12:29:36;;;;;;;1.63;1.17;;;10.00;98.20;;;;;;5052926;28;20469;-75
2021/12/17 12:32:18;;;;;;;1.60;1.20;;;10.00;98.20;;;;;;5056567;28;20759;-78
2021/12/17 12:34:45;;;;;;;1.63;1.20;;;10.00;98.20;;;;;;5058027;28;20489;-78
2021/12/17 12:37:26;;;;;;;1.60;1.20;;;10.00;98.20;;;;;;5054660;28;20497;-79
2021/12/17 12:40:21;;;;;;;1.60;1.20;;;10.00;98.20;;;;;;5055971;28;20464;-78
2021/12/17 12:42:57;;;;;;;1.60;1.10;;;10.10;98.20;;;;;;5053757;28;20524;-76
2021/12/17 12:45:25;;;;;;;1.60;1.20;;;10.10;98.20;;;;;;5055470;28;20485;-78
2021/12/17 12:47:59;;;;;;;1.80;1.50;;;10.10;98.20;;;;;;5055516;28;20485;-76
2021/12/17 12:50:31;;;;;;;1.60;1.10;;;10.10;98.20;;;;;;5056174;28;20469;-78
2021/12/17 12:53:11;;;;;;;1.60;1.10;;;10.10;98.20;;;;;;5056028;28;20469;-78
2021/12/17 12:55:43;;;;;;;1.63;1.17;;;10.10;98.20;;;;;;5058982;28;20467;-77
2021/12/17 12:58:14;;;;;;;1.60;1.20;;;10.10;98.20;;;;;;5061373;28;20478;-77
2021/12/17 13:00:45;;;;;;;1.60;1.20;;;10.10;98.20;;;;;;5062214;28;20859;-75
2021/12/17 13:03:15;;;;;;;1.63;1.30;;;10.10;98.20;;;;;;5053100;28;20470;-77
2021/12/17 13:05:44;;;;;;;1.60;1.10;;;10.10;98.20;;;;;;5064899;28;20854;-75
2021/12/17 13:08:14;;;;;;;1.60;1.20;;;10.10;98.20;;;;;;5056447;28;20509;-77
2021/12/17 13:10:44;;;;;;;1.60;1.10;;;10.10;98.20;;;;;;5059366;28;20472;-74
2021/12/17 13:13:20;;;;;;;1.60;1.20;;;10.00;98.20;;;;;;5061814;28;20466;-75
2021/12/17 13:16:03;;;;;;;1.60;1.20;;;10.10;98.20;;;;;;5060288;28;20785;-79
2021/12/17 13:21:32;;;;;;;1.60;1.10;;;10.00;98.20;;;;;;5060342;28;20465;-78
2021/12/17 13:24:09;;;;;;;1.60;1.20;;;10.00;98.20;;;;;;5059616;28;20465;-76
2021/12/17 13:26:39;;;;;;;1.70;1.40;;;10.00;98.20;;;;;;5062615;28;20489;-77
2021/12/17 13:29:12;;;;;;;2.33;2.13;;;9.90;98.20;;;;;;5061758;28;21296;-75
2021/12/17 13:31:47;;;;;;;1.60;1.10;;;9.90;98.20;;;;;;5062602;28;20583;-75
2021/12/17 13:34:18;;;;;;;1.60;1.20;;;9.90;98.20;;;;;;5062255;28;20465;-77
2021/12/17 13:37:11;;;;;;;1.63;1.20;;;9.90;98.20;;;;;;5059994;28;20459;-76
2021/12/17 13:39:43;;;;;;;2.67;2.47;;;9.90;98.20;;;;;;5061319;28;20470;-75
2021/12/17 13:42:13;;;;;;;1.60;1.20;;;9.80;98.20;;;;;;5062253;28;20544;-75
2021/12/17 13:44:45;;;;;;;1.60;1.10;;;9.80;98.20;;;;;;5062765;28;21037;-76
2021/12/17 13:47:23;;;;;;;1.60;1.20;;;9.80;98.20;;;;;;5062163;28;20523;-76
2021/12/17 13:49:54;;;;;;;1.60;1.20;;;9.80;98.20;;;;;;5063729;28;20469;-76
2021/12/17 13:52:25;;;;;;;1.60;1.20;;;9.90;98.20;;;;;;5058138;28;20461;-75
2021/12/17 13:54:53;;;;;;;1.60;1.10;;;9.90;98.20;;;;;;5058766;28;20948;-77
2021/12/17 13:57:23;;;;;;;1.60;1.10;;;9.90;98.20;;;;;;5057948;28;20495;-77
2021/12/17 13:59:52;;;;;;;1.60;1.10;;;9.90;98.20;;;;;;5063577;28;20465;-76
2021/12/17 14:02:21;;;;;;;1.60;1.20;;;9.90;98.20;;;;;;5062683;28;20473;-76
2021/12/17 14:05:10;;;;;;;1.60;1.10;;;9.90;98.20;;;;;;5063547;28;20472;-77
2021/12/17 14:07:39;;;;;;;1.60;1.20;;;9.90;98.20;;;;;;5057204;28;20499;-78
2021/12/17 14:10:10;;;;;;;1.60;1.10;;;9.90;98.20;;;;;;5061877;28;20461;-78
2021/12/17 14:12:39;;;;;;;1.63;1.20;;;9.90;98.20;;;;;;5061158;28;20511;-75
2021/12/17 14:15:12;;;;;;;1.60;1.20;;;9.90;98.20;;;;;;5062984;28;20466;-79
2021/12/17 14:17:42;;;;;;;1.60;1.20;;;9.80;98.20;;;;;;5063596;28;20600;-76
2021/12/17 14:20:13;;;;;;;1.60;1.10;;;9.90;98.20;;;;;;5063213;28;20469;-77
2021/12/17 14:22:42;;;;;;;1.67;1.20;;;9.80;98.20;;;;;;5055586;28;20469;-75
2021/12/17 14:25:31;;;;;;;1.60;1.20;;;9.80;98.20;;;;;;5060032;28;20566;-79
2021/12/17 14:28:00;;;;;;;1.60;1.10;;;9.80;98.20;;;;;;5060187;28;20932;-76
2021/12/17 14:30:33;;;;;;;2.83;1.77;;;9.80;98.20;;;;;;5063217;28;20761;-77
2021/12/17 14:33:06;;;;;;;1.60;1.20;;;9.80;98.20;;;;;;5059276;28;20564;-75
2021/12/17 14:35:48;;;;;;;1.60;1.20;;;9.80;98.20;;;;;;5061255;28;20457;-76
2021/12/17 14:38:18;;;;;;;1.70;1.30;;;9.80;98.20;;;;;;5061463;28;20493;-78
2021/12/17 14:40:54;;;;;;;1.60;1.20;;;9.80;98.20;;;;;;5060579;28;20457;-76
2021/12/17 14:43:24;;;;;;;1.60;1.20;;;9.70;98.20;;;;;;5061978;28;20465;-78
2021/12/17 14:46:03;;;;;;;1.60;1.20;;;9.70;98.20;;;;;;5063195;28;20605;-76
2021/12/17 14:48:41;;;;;;;1.60;1.20;;;9.70;98.20;;;;;;5063337;28;20522;-77
2021/12/17 15:02:38;;;;;;;1.60;1.10;;;9.60;98.20;;;;;;5061745;28;20500;-76
2021/12/17 15:05:06;;;;;;;1.60;1.20;;;9.60;98.20;;;;;;5061094;28;20548;-77
2021/12/17 15:07:33;;;;;;;1.60;1.10;;;9.60;98.20;;;;;;5062643;28;20477;-76
2021/12/17 15:10:02;;;;;;;1.73;1.43;;;9.50;98.20;;;;;;5062859;28;20949;-76
2021/12/17 15:12:38;;;;;;;1.60;1.10;;;9.50;98.20;;;;;;5061077;28;21118;-77
2021/12/17 15:15:13;;;;;;;1.70;1.27;;;9.50;98.20;;;;;;5063573;28;20468;-78
2021/12/17 15:17:42;;;;;;;1.60;1.10;;;9.50;98.20;;;;;;5063355;28;20487;-77
2021/12/17 15:20:11;;;;;;;1.60;1.10;;;9.50;98.20;;;;;;5062004;28;20976;-78
2021/12/17 15:22:38;;;;;;;1.60;1.20;;;9.40;98.20;;;;;;5059005;28;20465;-78
2021/12/17 15:25:08;;;;;;;1.60;1.10;;;9.40;98.20;;;;;;5060224;28;20470;-78
2021/12/17 15:27:35;;;;;;;1.60;1.20;;;9.30;98.20;;;;;;5062541;28;20493;-79
2021/12/17 15:30:04;;;;;;;1.60;1.10;;;9.30;98.20;;;;;;5054935;28;20546;-79
2021/12/17 15:32:31;;;;;;;1.60;1.20;;;9.30;98.20;;;;;;5053554;28;20899;-81
2021/12/17 15:35:00;;;;;;;1.60;1.27;;;9.30;98.20;;;;;;5057272;28;20498;-75
2021/12/17 15:37:27;;;;;;;1.60;1.20;;;9.20;98.20;;;;;;5056232;28;20574;-76
2021/12/17 15:39:54;;;;;;;1.60;1.20;;;9.20;98.20;;;;;;5057130;28;20472;-75
2021/12/17 15:42:22;;;;;;;1.60;1.10;;;9.20;98.20;;;;;;5056401;28;20461;-79
2021/12/17 15:44:49;;;;;;;1.60;1.20;;;9.20;98.20;;;;;;5056540;28;20469;-77
2021/12/17 15:47:16;;;;;;;1.60;1.20;;;9.20;98.20;;;;;;5056270;28;20520;-76
2021/12/17 15:49:44;;;;;;;1.60;1.20;;;9.20;98.20;;;;;;5050457;28;20841;-78
2021/12/17 15:52:13;;;;;;;1.60;1.20;;;9.20;98.20;;;;;;5045793;28;20524;-77
2021/12/17 15:54:40;;;;;;;1.60;1.20;;;9.10;98.20;;;;;;5052538;28;20885;-77
2021/12/17 15:57:08;;;;;;;1.63;1.20;;;9.10;98.20;;;;;;5049079;28;20477;-76
2021/12/17 15:59:35;;;;;;;1.60;1.20;;;9.10;98.20;;;;;;5053044;28;21008;-75
2021/12/17 16:02:03;;;;;;;1.60;1.20;;;9.10;98.20;;;;;;5055577;28;20472;-76
2021/12/17 16:04:34;;;;;;;1.60;1.20;;;9.10;98.20;;;;;;5056382;28;20457;-76
2021/12/17 16:07:02;;;;;;;1.60;1.20;;;9.00;98.20;;;;;;5055666;28;20481;-76
2021/12/17 16:10:08;;;;;;;1.60;1.20;;;9.00;98.20;;;;;;5055988;28;20469;-75